Terminal Aerodrome Forecast
Issued by NWS Cleveland, OH

Home | Current Version | Previous Version | Text Only | Print | Product List | Glossary On
Versions: 1 2 3 4 5 6 7 8 9 10 11 12 13 14
000
FTUS41 KCLE 100525
TAFTOL
TAF
KTOL 100525Z 1006/1106 26010KT P6SM OVC060
     FM102100 24010KT P6SM OVC250
     FM110200 24005KT P6SM OVC025
     FM110300 24005KT 2SM -SN OVC015=

USA.gov is the U.S. government's official web portal to all federal, state and local government web resources and services.